createdAt,value
2017-10-20T00:01:00.541Z,66.57
2017-10-20T00:03:29.597Z,61.30
2017-10-20T00:05:57.881Z,72.40
2017-10-20T00:08:26.177Z,71.40
2017-10-20T00:10:54.455Z,62.37
2017-10-20T00:13:22.742Z,61.10
2017-10-20T00:15:51.778Z,63.47
2017-10-20T00:18:20.121Z,65.90
2017-10-20T00:20:48.417Z,63.43
2017-10-20T00:23:16.746Z,64.40
2017-10-20T00:25:45.024Z,63.23
2017-10-20T00:28:13.393Z,74.00
2017-10-20T00:30:41.690Z,65.10
2017-10-20T00:33:10.048Z,60.03
2017-10-20T00:35:38.333Z,59.90
2017-10-20T00:38:07.370Z,64.70
2017-10-20T00:40:35.677Z,69.50
2017-10-20T00:43:03.947Z,61.93
2017-10-20T00:45:32.246Z,62.37
2017-10-20T00:48:00.531Z,51.80
2017-10-20T00:50:28.812Z,56.73
2017-10-20T00:52:57.189Z,57.87
2017-10-20T00:55:26.281Z,50.77
2017-10-20T00:57:54.563Z,52.17
2017-10-20T01:00:22.862Z,56.83
2017-10-20T01:02:51.933Z,55.03
2017-10-20T01:05:20.236Z,51.80
2017-10-20T01:07:49.279Z,55.87
2017-10-20T01:10:17.580Z,55.87
2017-10-20T01:12:45.858Z,56.17
2017-10-20T01:15:14.137Z,50.67
2017-10-20T01:17:42.422Z,50.80
2017-10-20T01:20:10.780Z,46.80
2017-10-20T01:22:39.044Z,51.03
2017-10-20T01:25:07.318Z,51.03
2017-10-20T01:27:35.619Z,48.83
2017-10-20T01:30:03.905Z,48.17
2017-10-20T01:32:32.379Z,45.80
2017-10-20T01:35:00.636Z,51.43
2017-10-20T01:37:28.931Z,46.53
2017-10-20T01:39:57.211Z,48.43
2017-10-20T01:42:25.591Z,46.93
2017-10-20T01:44:53.861Z,46.10
2017-10-20T01:47:22.248Z,48.67
2017-10-20T01:49:50.536Z,48.70
2017-10-20T01:52:18.906Z,46.20
2017-10-20T01:54:47.182Z,48.93
2017-10-20T01:57:15.554Z,45.60
2017-10-20T01:59:43.938Z,49.33
2017-10-20T02:02:12.318Z,46.77
2017-10-20T02:04:40.595Z,43.60
2017-10-20T02:07:08.893Z,42.37
2017-10-20T02:09:37.263Z,40.90
2017-10-20T02:12:06.352Z,47.50
2017-10-20T02:14:34.622Z,44.20
2017-10-20T02:17:02.928Z,44.70
2017-10-20T02:19:31.192Z,45.13
2017-10-20T02:21:59.480Z,46.40
2017-10-20T02:24:27.844Z,45.00
2017-10-20T02:26:56.929Z,42.40
2017-10-20T02:29:25.209Z,45.20
2017-10-20T02:31:53.503Z,48.00
2017-10-20T02:34:21.862Z,48.93
2017-10-20T02:36:50.157Z,52.00
2017-10-20T02:39:18.423Z,48.93
2017-10-20T02:41:47.514Z,46.10
2017-10-20T02:44:15.793Z,41.40
2017-10-20T02:46:44.169Z,41.20
2017-10-20T02:49:12.468Z,39.13
2017-10-20T02:51:40.827Z,39.10
2017-10-20T02:54:09.104Z,42.23
2017-10-20T02:56:37.422Z,44.60
2017-10-20T02:59:06.475Z,40.20
2017-10-20T03:01:34.765Z,48.00
2017-10-20T03:04:03.060Z,41.73
2017-10-20T03:06:31.313Z,42.20
2017-10-20T03:08:59.612Z,38.00
2017-10-20T03:11:27.889Z,48.43
2017-10-20T03:13:57.063Z,45.03
2017-10-20T03:16:25.363Z,37.37
2017-10-20T03:18:54.425Z,40.33
2017-10-20T03:21:22.816Z,45.63
2017-10-20T03:23:51.112Z,36.60
2017-10-20T03:26:19.393Z,42.97
2017-10-20T03:28:47.757Z,39.93
2017-10-20T03:31:16.805Z,39.60
2017-10-20T03:33:45.129Z,35.00
2017-10-20T03:36:13.395Z,38.60
2017-10-20T03:38:41.698Z,37.83
2017-10-20T03:41:10.055Z,40.97
2017-10-20T03:43:39.155Z,38.67
2017-10-20T03:46:07.429Z,38.63
2017-10-20T03:48:37.234Z,41.43
2017-10-20T03:51:05.529Z,38.57
2017-10-20T03:53:33.823Z,44.47
2017-10-20T03:58:37.481Z,41.40
2017-10-20T04:01:05.884Z,45.47
2017-10-20T04:03:34.181Z,41.40
2017-10-20T04:06:02.567Z,41.83
2017-10-20T04:08:30.930Z,38.97
2017-10-20T04:10:59.189Z,42.63
2017-10-20T04:13:27.560Z,40.20
2017-10-20T04:15:55.824Z,36.10
2017-10-20T04:18:24.100Z,40.63
2017-10-20T04:20:52.390Z,49.63
2017-10-20T04:23:21.173Z,39.03
2017-10-20T04:25:50.361Z,36.53
2017-10-20T04:28:20.212Z,37.53
2017-10-20T04:30:48.737Z,33.90
2017-10-20T04:33:18.325Z,34.63
2017-10-20T04:35:46.622Z,35.33
2017-10-20T04:38:14.911Z,36.43
2017-10-20T04:40:43.221Z,35.20
2017-10-20T04:43:11.492Z,37.33
2017-10-20T04:45:39.818Z,39.80
2017-10-20T04:48:08.147Z,31.60
2017-10-20T04:50:37.171Z,37.57
2017-10-20T04:53:06.260Z,33.70
2017-10-20T04:55:35.547Z,36.53
2017-10-20T04:58:03.844Z,31.13
2017-10-20T05:00:32.189Z,38.03
2017-10-20T05:03:00.459Z,32.20
2017-10-20T05:05:28.798Z,33.50
2017-10-20T05:07:57.076Z,35.77
2017-10-20T05:10:25.362Z,31.70
2017-10-20T05:12:54.409Z,29.50
2017-10-20T05:15:22.734Z,34.77
2017-10-20T05:17:51.780Z,28.97
2017-10-20T05:20:20.286Z,35.20
2017-10-20T05:22:48.653Z,39.40
2017-10-20T05:25:17.044Z,31.93
2017-10-20T05:27:45.299Z,33.30
2017-10-20T05:30:13.710Z,37.87
2017-10-20T05:32:42.094Z,35.90
2017-10-20T05:35:10.358Z,33.30
2017-10-20T05:37:41.079Z,34.80
2017-10-20T05:40:09.422Z,34.37
2017-10-20T05:42:37.786Z,44.90
2017-10-20T05:45:06.143Z,32.53
2017-10-20T05:47:35.204Z,33.93
2017-10-20T05:50:03.496Z,38.17
2017-10-20T05:52:32.602Z,37.10
2017-10-20T05:55:01.640Z,34.23
2017-10-20T05:57:30.049Z,23.07
2017-10-20T05:59:59.096Z,30.00
2017-10-20T06:02:27.469Z,29.27
2017-10-20T06:04:55.757Z,30.87
2017-10-20T06:07:24.071Z,32.90
2017-10-20T06:09:53.120Z,30.30
2017-10-20T06:12:21.542Z,33.37
2017-10-20T06:14:50.426Z,32.20
2017-10-20T06:17:19.112Z,29.83
2017-10-20T06:19:47.558Z,31.93
2017-10-20T06:22:16.904Z,26.50
2017-10-20T06:24:45.177Z,32.97
2017-10-20T06:27:13.501Z,35.07
2017-10-20T06:29:42.620Z,27.97
2017-10-20T06:32:10.953Z,30.67
2017-10-20T06:34:39.230Z,31.43
2017-10-20T06:37:07.592Z,33.40
2017-10-20T06:39:35.870Z,27.13
2017-10-20T06:42:04.160Z,32.00
2017-10-20T06:44:32.446Z,28.33
2017-10-20T06:47:00.739Z,35.37
2017-10-20T06:49:28.989Z,34.93
2017-10-20T06:51:57.373Z,29.10
2017-10-20T06:54:25.695Z,30.10
2017-10-20T06:56:54.020Z,33.30
2017-10-20T06:59:23.839Z,28.17
2017-10-20T07:01:52.955Z,32.17
2017-10-20T07:04:21.340Z,35.73
2017-10-20T07:06:49.693Z,29.57
2017-10-20T07:09:18.790Z,36.27
2017-10-20T07:11:47.044Z,30.73
2017-10-20T07:14:15.358Z,29.60
2017-10-20T07:16:43.616Z,30.13
2017-10-20T07:19:11.920Z,31.63
2017-10-20T07:21:40.954Z,31.80
2017-10-20T07:24:09.270Z,32.47
2017-10-20T07:26:38.128Z,33.17
2017-10-20T07:29:06.430Z,41.27
2017-10-20T07:31:34.713Z,29.57
2017-10-20T07:34:03.006Z,29.47
2017-10-20T07:36:31.371Z,27.57
2017-10-20T07:38:59.661Z,32.90
2017-10-20T07:41:27.948Z,30.40
2017-10-20T07:43:57.021Z,27.27
2017-10-20T07:46:25.308Z,31.47
2017-10-20T07:48:53.681Z,24.90
2017-10-20T07:51:21.952Z,32.60
2017-10-20T07:53:50.233Z,31.87
2017-10-20T07:56:18.504Z,34.70
2017-10-20T07:58:46.796Z,31.03
2017-10-20T08:01:15.161Z,30.30
2017-10-20T08:03:43.464Z,30.80
2017-10-20T08:06:11.720Z,24.90
2017-10-20T08:08:40.776Z,24.73
2017-10-20T08:11:09.044Z,26.23
2017-10-20T08:13:37.334Z,26.67
2017-10-20T08:16:05.606Z,22.50
2017-10-20T08:18:33.917Z,24.37
2017-10-20T08:21:02.192Z,22.70
2017-10-20T08:23:30.577Z,24.50
2017-10-20T08:25:58.845Z,26.23
2017-10-20T08:28:27.135Z,57.27
2017-10-20T08:30:55.408Z,44.27
2017-10-20T08:33:23.688Z,30.23
2017-10-20T08:35:51.985Z,24.30
2017-10-20T08:38:20.341Z,31.77
2017-10-20T08:40:48.622Z,27.00
2017-10-20T08:43:17.064Z,26.00
2017-10-20T08:45:45.320Z,26.63
2017-10-20T08:48:13.665Z,24.23
2017-10-20T08:50:41.968Z,26.90
2017-10-20T08:53:11.012Z,27.53
2017-10-20T08:55:39.332Z,28.60
2017-10-20T08:58:07.588Z,24.00
2017-10-20T09:00:35.902Z,25.90
2017-10-20T09:03:04.940Z,22.47
2017-10-20T09:05:33.239Z,25.40
2017-10-20T09:08:01.530Z,25.00
2017-10-20T09:10:29.812Z,24.60
2017-10-20T09:12:58.882Z,26.13
2017-10-20T09:15:27.184Z,27.73
2017-10-20T09:17:55.559Z,30.33
2017-10-20T09:20:23.865Z,28.03
2017-10-20T09:22:52.940Z,27.70
2017-10-20T09:25:21.245Z,26.07
2017-10-20T09:27:49.510Z,34.80
2017-10-20T09:30:17.843Z,28.40
2017-10-20T09:32:46.114Z,26.37
2017-10-20T09:35:14.447Z,22.37
2017-10-20T09:37:42.741Z,22.10
2017-10-20T09:40:11.029Z,23.17
2017-10-20T09:42:39.302Z,20.20
2017-10-20T09:45:07.584Z,22.87
2017-10-20T09:47:35.908Z,27.40
2017-10-20T09:50:04.186Z,22.43
2017-10-20T09:52:33.238Z,21.63
2017-10-20T09:55:01.558Z,23.77
2017-10-20T09:57:29.833Z,19.20
2017-10-20T09:59:58.164Z,19.87
2017-10-20T10:02:26.476Z,27.43
2017-10-20T10:04:54.830Z,27.50
2017-10-20T10:07:23.142Z,17.43
2017-10-20T10:09:52.217Z,21.40
2017-10-20T10:12:20.510Z,20.23
2017-10-20T10:14:48.869Z,25.93
2017-10-20T10:17:17.152Z,17.30
2017-10-20T10:19:45.451Z,24.47
2017-10-20T10:22:13.724Z,18.87
2017-10-20T10:24:42.011Z,24.63
2017-10-20T10:27:11.075Z,22.30
2017-10-20T10:29:39.381Z,20.10
2017-10-20T10:32:07.648Z,20.20
2017-10-20T10:34:36.007Z,18.60
2017-10-20T10:37:04.285Z,22.07
2017-10-20T10:39:32.615Z,19.90
2017-10-20T10:42:01.764Z,23.90
2017-10-20T10:44:30.043Z,16.50
2017-10-20T10:46:58.321Z,18.10
2017-10-20T10:49:26.622Z,20.60
2017-10-20T10:51:54.893Z,21.17
2017-10-20T10:54:23.200Z,47.70
2017-10-20T10:56:52.225Z,27.40
2017-10-20T10:59:20.535Z,25.17
2017-10-20T11:01:48.838Z,21.43
2017-10-20T11:04:17.882Z,23.73
2017-10-20T11:09:59.662Z,21.20
2017-10-20T11:12:39.829Z,20.40
2017-10-20T11:15:08.128Z,19.13
2017-10-20T11:17:36.400Z,18.80
2017-10-20T11:20:04.735Z,15.60
2017-10-20T11:22:33.793Z,18.43
2017-10-20T11:25:02.101Z,16.47
2017-10-20T11:27:30.374Z,20.97
2017-10-20T11:30:00.216Z,15.87
2017-10-20T11:32:29.268Z,17.00
2017-10-20T11:34:57.570Z,20.23
2017-10-20T11:37:26.613Z,17.23
2017-10-20T11:39:54.907Z,16.70
2017-10-20T11:42:23.294Z,15.17
2017-10-20T11:44:51.676Z,23.17
2017-10-20T11:47:19.953Z,17.53
2017-10-20T11:49:48.243Z,22.90
2017-10-20T11:52:16.521Z,13.93
2017-10-20T11:54:45.584Z,16.90
2017-10-20T11:57:13.865Z,16.30
2017-10-20T11:59:42.167Z,18.00
2017-10-20T12:02:10.443Z,19.00
2017-10-20T12:04:40.246Z,18.40
2017-10-20T12:07:08.619Z,21.20
2017-10-20T12:09:36.893Z,21.43
2017-10-20T12:12:05.281Z,45.93
2017-10-20T12:14:33.552Z,24.00
2017-10-20T12:17:01.925Z,18.63
2017-10-20T12:19:30.189Z,19.40
2017-10-20T12:21:58.478Z,20.93
2017-10-20T12:24:26.763Z,18.33
2017-10-20T12:26:55.052Z,18.90
2017-10-20T12:29:23.314Z,24.20
2017-10-20T12:31:51.600Z,20.93
2017-10-20T12:34:19.874Z,18.63
2017-10-20T12:36:48.152Z,19.60
2017-10-20T12:39:16.421Z,21.73
2017-10-20T12:41:44.804Z,17.43
2017-10-20T12:44:13.081Z,20.17
2017-10-20T12:46:41.367Z,20.77
2017-10-20T12:49:09.641Z,22.03
2017-10-20T12:51:38.018Z,34.07
2017-10-20T12:54:06.294Z,46.17
2017-10-20T12:56:34.586Z,26.10
2017-10-20T12:59:02.864Z,21.30
2017-10-20T13:01:31.141Z,18.90
2017-10-20T13:03:59.422Z,17.90
2017-10-20T13:06:27.714Z,15.67
2017-10-20T13:08:56.784Z,20.27
2017-10-20T13:11:25.061Z,20.90
2017-10-20T13:13:53.343Z,18.73
2017-10-20T13:16:21.784Z,19.70
2017-10-20T13:18:50.045Z,19.47
2017-10-20T13:21:18.342Z,24.33
2017-10-20T13:23:46.613Z,21.10
2017-10-20T13:26:14.904Z,23.20
2017-10-20T13:28:43.194Z,17.23
2017-10-20T13:31:11.573Z,19.37
2017-10-20T13:33:39.965Z,16.43
2017-10-20T13:36:08.352Z,24.03
2017-10-20T13:38:36.693Z,21.33
2017-10-20T13:41:04.999Z,16.97
2017-10-20T13:43:33.352Z,17.60
2017-10-20T13:46:01.801Z,18.40
2017-10-20T13:48:31.096Z,19.17
2017-10-20T13:51:00.211Z,17.40
2017-10-20T13:53:28.473Z,18.10
2017-10-20T13:55:56.779Z,18.73
2017-10-20T13:58:25.070Z,17.97
2017-10-20T14:00:53.359Z,21.30
2017-10-20T14:03:21.642Z,22.40
2017-10-20T14:05:50.043Z,26.33
2017-10-20T14:08:18.550Z,20.93
2017-10-20T14:10:47.626Z,20.30
2017-10-20T14:13:17.677Z,23.57
2017-10-20T14:15:46.954Z,19.97
2017-10-20T14:18:15.255Z,18.83
2017-10-20T14:20:45.743Z,21.73
2017-10-20T14:23:15.143Z,19.20
2017-10-20T14:25:44.590Z,18.57
2017-10-20T14:28:14.293Z,21.87
2017-10-20T14:30:42.888Z,19.23
2017-10-20T14:33:11.187Z,19.20
2017-10-20T14:35:40.575Z,23.10
2017-10-20T14:38:08.911Z,22.00
2017-10-20T14:40:37.236Z,19.80
2017-10-20T14:43:05.566Z,20.90
2017-10-20T14:45:33.929Z,18.60
2017-10-20T14:48:02.229Z,21.27
2017-10-20T14:50:31.278Z,20.90
2017-10-20T14:52:59.576Z,20.43
2017-10-20T14:55:27.885Z,19.37
2017-10-20T14:57:56.245Z,18.60
2017-10-20T15:00:24.543Z,22.10
2017-10-20T15:02:52.825Z,21.60
2017-10-20T15:05:21.877Z,21.60
2017-10-20T15:07:50.187Z,20.40
2017-10-20T15:10:18.481Z,23.13
2017-10-20T15:12:46.783Z,20.93
2017-10-20T15:15:15.093Z,21.33
2017-10-20T15:17:43.405Z,21.40
2017-10-20T15:20:12.831Z,23.83
2017-10-20T15:22:41.511Z,22.57
2017-10-20T15:25:11.551Z,21.00
2017-10-20T15:27:42.953Z,23.03
2017-10-20T15:30:14.512Z,18.57
2017-10-20T15:32:43.593Z,26.53
2017-10-20T15:35:12.785Z,22.40
2017-10-20T15:37:41.156Z,24.53
2017-10-20T15:40:12.688Z,25.00
2017-10-20T15:42:47.214Z,23.93
2017-10-20T15:45:17.186Z,23.30
2017-10-20T15:47:45.500Z,23.70
2017-10-20T15:50:15.678Z,21.83
2017-10-20T15:52:44.799Z,20.17
2017-10-20T15:55:14.216Z,22.03
2017-10-20T15:57:43.776Z,26.27
2017-10-20T16:00:12.782Z,22.27
2017-10-20T16:02:41.156Z,22.90
2017-10-20T16:05:09.416Z,24.83
2017-10-20T16:07:40.212Z,21.67
2017-10-20T16:10:10.112Z,21.90
2017-10-20T16:12:38.427Z,23.17
2017-10-20T16:15:09.039Z,23.03
2017-10-20T16:17:37.376Z,23.57
2017-10-20T16:20:06.676Z,19.83
2017-10-20T16:22:36.581Z,23.37
2017-10-20T16:25:04.856Z,20.67
2017-10-20T16:27:33.140Z,23.27
2017-10-20T16:30:01.403Z,22.40
2017-10-20T16:32:29.721Z,24.17
2017-10-20T16:34:58.211Z,25.07
2017-10-20T16:37:26.541Z,25.00
2017-10-20T16:39:54.953Z,24.87
2017-10-20T16:42:23.238Z,25.93
2017-10-20T16:44:51.505Z,23.60
2017-10-20T16:47:19.904Z,25.13
2017-10-20T16:49:48.271Z,27.73
2017-10-20T16:52:16.583Z,25.37
2017-10-20T16:54:45.764Z,28.67
2017-10-20T16:57:14.053Z,27.30
2017-10-20T16:59:43.153Z,29.00
2017-10-20T17:02:12.188Z,26.80
2017-10-20T17:04:41.354Z,25.60
2017-10-20T17:07:10.405Z,24.03
2017-10-20T17:09:38.740Z,22.37
2017-10-20T17:12:07.308Z,25.73
2017-10-20T17:14:35.645Z,24.30
2017-10-20T17:17:06.081Z,24.17
2017-10-20T17:19:35.208Z,24.80
2017-10-20T17:22:03.473Z,22.93
2017-10-20T17:24:31.760Z,25.23
2017-10-20T17:27:00.158Z,25.20
2017-10-20T17:29:28.548Z,27.10
2017-10-20T17:31:56.829Z,26.87
2017-10-20T17:34:25.125Z,23.27
2017-10-20T17:36:53.489Z,22.50
2017-10-20T17:39:21.890Z,25.40
2017-10-20T17:41:50.173Z,25.23
2017-10-20T17:44:18.498Z,22.83
2017-10-20T17:46:46.787Z,21.90
2017-10-20T17:49:15.995Z,25.97
2017-10-20T17:51:44.308Z,24.17
2017-10-20T17:54:12.639Z,25.20
2017-10-20T17:56:40.940Z,22.20
2017-10-20T17:59:10.051Z,22.93
2017-10-20T18:01:38.301Z,24.30
2017-10-20T18:04:06.581Z,18.77
2017-10-20T18:06:34.856Z,23.60
2017-10-20T18:09:03.158Z,22.63
2017-10-20T18:11:31.420Z,23.93
2017-10-20T18:13:59.713Z,24.27
2017-10-20T18:16:27.989Z,24.50
2017-10-20T18:18:56.292Z,24.43
2017-10-20T18:21:24.565Z,27.97
2017-10-20T18:23:52.885Z,31.47
2017-10-20T18:26:21.161Z,26.33
2017-10-20T18:28:49.440Z,25.50
2017-10-20T18:31:17.768Z,25.63
2017-10-20T18:33:46.035Z,24.23
2017-10-20T18:36:14.324Z,24.63
2017-10-20T18:38:42.586Z,19.60
2017-10-20T18:41:10.987Z,24.37
2017-10-20T18:43:39.277Z,26.60
2017-10-20T18:46:07.556Z,28.47
2017-10-20T18:48:35.815Z,26.13
2017-10-20T18:51:04.109Z,32.80
2017-10-20T18:53:33.212Z,24.50
2017-10-20T18:56:01.567Z,25.00
2017-10-20T18:58:29.840Z,27.60
2017-10-20T19:00:58.242Z,28.70
2017-10-20T19:03:26.625Z,28.40
2017-10-20T19:05:55.039Z,22.67
2017-10-20T19:08:23.311Z,20.70
2017-10-20T19:10:51.613Z,30.63
2017-10-20T19:13:19.912Z,28.50
2017-10-20T19:15:48.202Z,32.30
2017-10-20T19:18:16.575Z,29.90
2017-10-20T19:20:44.893Z,29.77
2017-10-20T19:23:13.174Z,28.70
2017-10-20T19:25:41.555Z,27.33
2017-10-20T19:28:10.605Z,26.80
2017-10-20T19:30:39.700Z,34.57
2017-10-20T19:33:07.970Z,22.80
2017-10-20T19:35:36.257Z,24.33
2017-10-20T19:38:04.544Z,24.97
2017-10-20T19:40:32.850Z,33.80
2017-10-20T19:43:02.026Z,23.30
2017-10-20T19:45:30.288Z,27.47
2017-10-20T19:47:58.660Z,24.37
2017-10-20T19:50:26.919Z,20.77
2017-10-20T19:52:55.231Z,24.47
2017-10-20T19:55:23.579Z,23.20
2017-10-20T19:57:51.982Z,22.57
2017-10-20T20:02:54.916Z,24.83
2017-10-20T20:05:24.001Z,30.93
2017-10-20T20:07:52.361Z,22.90
2017-10-20T20:10:20.638Z,24.03
2017-10-20T20:12:49.013Z,21.80
2017-10-20T20:15:17.395Z,26.53
2017-10-20T20:17:45.766Z,19.30
2017-10-20T20:20:14.086Z,20.60
2017-10-20T20:22:42.589Z,21.57
2017-10-20T20:25:10.883Z,22.03
2017-10-20T20:27:39.177Z,24.13
2017-10-20T20:30:07.465Z,21.83
2017-10-20T20:35:34.581Z,33.87
2017-10-20T20:38:02.878Z,25.60
2017-10-20T20:40:31.155Z,21.30
2017-10-20T20:43:00.557Z,18.00
2017-10-20T20:45:28.962Z,18.60
2017-10-20T20:47:57.397Z,20.87
2017-10-20T20:50:26.790Z,14.30
2017-10-20T20:52:56.613Z,17.50
2017-10-20T20:55:24.914Z,16.10
2017-10-20T20:57:53.259Z,14.93
2017-10-20T21:00:21.771Z,19.23
2017-10-20T21:02:51.304Z,12.83
2017-10-20T21:05:19.599Z,21.40
2017-10-20T21:07:48.669Z,13.93
2017-10-20T21:10:18.446Z,20.80
2017-10-20T21:12:47.806Z,16.20
2017-10-20T21:15:16.414Z,27.50
2017-10-20T21:17:45.885Z,26.40
2017-10-20T21:20:19.110Z,35.33
2017-10-20T21:22:48.217Z,21.23
2017-10-20T21:25:17.382Z,20.97
2017-10-20T21:27:45.680Z,15.07
2017-10-20T21:30:14.091Z,26.50
2017-10-20T21:32:42.368Z,19.00
2017-10-20T21:35:10.647Z,18.17
2017-10-20T21:37:38.959Z,34.77
2017-10-20T21:40:07.341Z,16.20
2017-10-20T21:42:35.611Z,25.03
2017-10-20T21:45:04.787Z,16.77
2017-10-20T21:47:33.048Z,18.47
2017-10-20T21:50:01.340Z,29.07
2017-10-20T21:52:29.627Z,19.00
2017-10-20T21:54:58.804Z,14.87
2017-10-20T21:57:27.069Z,25.43
2017-10-20T21:59:56.769Z,18.20
2017-10-20T22:02:25.058Z,13.77
2017-10-20T22:04:53.339Z,12.80
2017-10-20T22:07:22.423Z,14.00
2017-10-20T22:09:50.730Z,17.50
2017-10-20T22:12:19.792Z,17.87
2017-10-20T22:14:48.079Z,13.97
2017-10-20T22:17:16.362Z,14.90
2017-10-20T22:19:45.565Z,12.43
2017-10-20T22:22:13.875Z,12.50
2017-10-20T22:24:42.158Z,12.73
2017-10-20T22:27:10.441Z,12.87
2017-10-20T22:29:38.729Z,14.60
2017-10-20T22:32:07.778Z,11.43
2017-10-20T22:34:36.051Z,11.63
2017-10-20T22:37:04.356Z,12.93
2017-10-20T22:39:32.632Z,11.90
2017-10-20T22:42:00.903Z,14.10
2017-10-20T22:44:29.204Z,11.80
2017-10-20T22:46:57.570Z,15.90
2017-10-20T22:49:25.848Z,14.00
2017-10-20T22:51:54.219Z,12.27
2017-10-20T22:54:22.490Z,12.40
2017-10-20T22:56:50.781Z,12.57
2017-10-20T22:59:19.193Z,12.93
2017-10-20T23:01:48.253Z,12.27
2017-10-20T23:04:16.538Z,13.47
2017-10-20T23:06:44.828Z,12.97
2017-10-20T23:09:13.193Z,13.30
2017-10-20T23:11:41.498Z,20.10
2017-10-20T23:14:10.563Z,16.17
2017-10-20T23:16:38.861Z,12.80
2017-10-20T23:19:07.124Z,13.57
2017-10-20T23:21:35.425Z,15.80
2017-10-20T23:24:04.464Z,14.20
2017-10-20T23:26:32.758Z,13.17
2017-10-20T23:29:01.033Z,12.73
2017-10-20T23:31:29.510Z,13.57
2017-10-20T23:33:57.807Z,15.40
2017-10-20T23:36:26.076Z,14.90
2017-10-20T23:38:54.336Z,12.83
2017-10-20T23:41:22.633Z,12.60
2017-10-20T23:43:50.942Z,18.17
2017-10-20T23:46:19.290Z,14.30
2017-10-20T23:48:47.572Z,14.80
2017-10-20T23:51:15.944Z,14.77
2017-10-20T23:53:44.232Z,12.47
2017-10-20T23:56:12.609Z,12.90
2017-10-20T23:58:40.890Z,14.73
